National Weather Service United States Department of Commerce

Wildfire Danger Continues in Southern California

High pressure building into the Western U.S. will create strong offshore winds in southern California. Temperatures in this region are unseasonably hot, and conditions are dry. The combination of these strong winds and dry conditions will bring fire danger to portions of southern California. Red Flag Warnings are in effect here. Any new fires in this region could quickly grow out of control. Read More >

                                      ZTL Airspace Summary / KTRI TAF                    For ATC Planning Purposes Only
ZTL Airspace Summary:
A cold front and associated line of convection will move east of ZTL, followed by high pressure ridging in from the west. Expect mostly VFR conditions with patchy MVFR ceilings over TN/N GA until 06z. Surface winds will be southwest to west at 8-12kts. Expect 50-60kt compression winds at ATL and CLT. Flight Hazards outside convection: LGT-MOD Turbulence at all altitudes.

Updated: 10/23/2017 8:20 PM
 

Tri-Cities Terminal Aerodrome Forecast:
 
FTUS80 KTRI 232330 RRI
KTRI 232329Z 2400/2424 25010KT P6SM VCSH SCT040 BKN050
      TEMPO 2400/2401 5SM -SHRA BR SCT007 BKN025
     FM240200 25009KT P6SM OVC020
     FM240700 23004KT 5SM BR SCT010
     FM241400 23010KT P6SM SCT025 OVC040
     FM241800 25015G24KT P6SM OVC050
     FM242200 26014KT P6SM OVC100

 

TRI METAR:  
SAUS80 KTRI 240000 RRB
METAR KTRI 232353Z 22009KT 10SM BKN050 BKN070 BKN085 14/13 A2984 RMK AO2
     RAB06E32 SLP087 P0001 60080 T01390133 10167 20139 53014 $

Go to KTRI TAF TDA
Go to KTRI TAF TDA

TRI TRACON HAZARDS
TRI TRACON: SFC-10000
AVG CIG BASE WHERE REPORTED BLW 10000FT: 5133.3333333333
LOWEST REPORTED CIG: 4900
LOWEST REPORTED FLIGHT CAT: VFR
METARS:
KVJI 240015Z AUTO 25007KT 10SM SCT013 SCT026 OVC049 14/13 A2984 RMK AO2 T01410131
K0A9 240015Z AUTO 25006G16KT 10SM FEW025 SCT045 BKN055 15/11 A2986 RMK A01
KTRI 232353Z 22009KT 10SM BKN050 BKN070 BKN085 14/13 A2984 RMK AO2 RAB06E32 SLP087 P0001 60080 T01390133 10167 20139 53014 $

TRI TRACON HAZARD

Forecast Surface Map Loop / Collaborative Convective Forecast Product / Vertical Wind Profile
Weather Map

 

AIRMETs & SIGMETS/ Southeast Radar loop / Satellite Image (click on image to enlarge)
Weather Map Southeast Radar Loop

satellite